Terminal Aerodrome Forecast
Issued by NWS

Home | Current Version | Previous Version | Text Only | Print | Product List | Glossary On
Versions: 1 2 3 4 5 6 7 8 9 10 11 12
744
FTUS45 KABQ 181126
TAFGUP
TAF
KGUP 181126Z 1812/1912 VRB03KT P6SM SCT250
     FM182100 25007KT P6SM SCT250
     FM190100 VRB03KT P6SM BKN250
     FM190800 00000KT P6SM BKN120=

USA.gov is the U.S. government's official web portal to all federal, state and local government web resources and services.